Startpagina
METAR-TAF:

METAR-TAF

Vliegvelden :

Challis Airport

Challis, Idaho, Verenigde Staten

breedte: 44-31-22N, lengte: 114-12-54W, hoogte: 1546 m

Actueel weer

Dit bericht is 20 minuten geleden gemaakt, om 00:55 UTC
Wind 3 kt uit het zuiden
Temperatuur -6°C
Vochtigheid 79%
Druk 1021 hPa
Zicht: 12.9 km
Onbewolkt

METAR: KLLJ 070055Z AUTO 17003KT 8SM CLR M06/M09 A3015 RMK AO2 SLP272 T10561089

Tijdstip: 18:15 (01:15 UTC)


TAF: ontbreekt

Waarnemingen en weersverwachtingen van meer dan 4000 vliegvelden (METAR en TAF).

De beschikbare stations zijn de gele en rode punten op de kaart.

Ga met uw muis naar het station om de naam te zien.

Klik dan om waarnemingen en weersverwachtingen te zien.

kaart wijzigen: klik op de groene knoppen met een zwart kruis om in te zoomen, op de groene knop met een streepje om uit te zoomen of op de groene pijlen voor aangrenzende kaarten.


METAR-TAF: